Vega, Texas
Current Conditions -  °F | °C
As of 7:15 AM on Thursday 30 Oct 2014 (Local Time) from KHRX Reporting Station
Clear Clear  
Wind Chill: 38°   Ceiling: Unl
Heat Index: 42°   Visibility: 10mi
Dew Point: 40°   Wind: 6mph
Humidity: 94%   Direction: 270°W
Pressure: 30.14"   Gusts: NA
Location:  35.24°N, 102.43°W
Report Text: KHRX 301215Z AUTO 27005KT 10SM CLR 06/05 A3014 RMK AO2 T00560047
Loading
Personal Weather Stations






























Interactive Weather Map
Tropical Storm Tracking
New forecast layout! Learn more

10-Day Weather Forecast

Advertisements
Track Severe Weather on mobile